sensor_id;sensor_type;location;lat;lon;timestamp;pressure;altitude;pressure_sealevel;temperature;humidity
21234;BME280;10774;42.178;26.578;2023-02-13T00:02:24;102031.09;;;0.68;92.86
21234;BME280;10774;42.178;26.578;2023-02-13T00:04:49;102030.00;;;0.45;93.44
21234;BME280;10774;42.178;26.578;2023-02-13T00:07:15;102013.13;;;0.32;92.84
21234;BME280;10774;42.178;26.578;2023-02-13T00:09:40;102041.13;;;0.16;94.53
21234;BME280;10774;42.178;26.578;2023-02-13T00:12:07;102000.94;;;-0.30;95.49
21234;BME280;10774;42.178;26.578;2023-02-13T00:14:37;102046.41;;;0.18;95.23
21234;BME280;10774;42.178;26.578;2023-02-13T00:17:03;102048.19;;;0.19;95.33
21234;BME280;10774;42.178;26.578;2023-02-13T00:19:28;102027.75;;;0.04;94.27
21234;BME280;10774;42.178;26.578;2023-02-13T00:21:54;102041.66;;;-0.09;94.94
21234;BME280;10774;42.178;26.578;2023-02-13T00:24:19;102028.59;;;0.00;94.56
21234;BME280;10774;42.178;26.578;2023-02-13T00:26:45;102029.63;;;0.14;93.64
21234;BME280;10774;42.178;26.578;2023-02-13T00:29:10;102049.94;;;0.17;93.00
21234;BME280;10774;42.178;26.578;2023-02-13T00:31:36;102019.00;;;0.08;92.88
21234;BME280;10774;42.178;26.578;2023-02-13T00:34:01;102027.81;;;0.07;93.13
21234;BME280;10774;42.178;26.578;2023-02-13T00:36:27;102034.84;;;0.10;92.04
21234;BME280;10774;42.178;26.578;2023-02-13T00:38:53;102043.56;;;0.01;91.88
21234;BME280;10774;42.178;26.578;2023-02-13T00:41:19;102046.34;;;-0.50;93.36
21234;BME280;10774;42.178;26.578;2023-02-13T00:43:46;102037.22;;;-0.72;94.92
21234;BME280;10774;42.178;26.578;2023-02-13T00:46:11;102055.88;;;-0.59;95.48
21234;BME280;10774;42.178;26.578;2023-02-13T00:48:38;102043.00;;;-0.39;95.18
21234;BME280;10774;42.178;26.578;2023-02-13T00:51:04;102055.31;;;-0.41;94.15
21234;BME280;10774;42.178;26.578;2023-02-13T00:53:31;102058.56;;;-0.57;94.87
21234;BME280;10774;42.178;26.578;2023-02-13T00:55:56;102062.72;;;-0.73;95.83
21234;BME280;10774;42.178;26.578;2023-02-13T00:58:22;102066.06;;;-0.83;96.03
21234;BME280;10774;42.178;26.578;2023-02-13T01:03:23;102058.22;;;-0.78;96.68
21234;BME280;10774;42.178;26.578;2023-02-13T01:05:49;102059.06;;;-0.81;96.02
21234;BME280;10774;42.178;26.578;2023-02-13T01:08:16;102059.16;;;-0.75;96.45
21234;BME280;10774;42.178;26.578;2023-02-13T01:10:44;102060.91;;;-0.75;96.20
21234;BME280;10774;42.178;26.578;2023-02-13T01:13:10;102064.06;;;-0.96;96.77
21234;BME280;10774;42.178;26.578;2023-02-13T01:15:36;102062.63;;;-0.79;97.43
21234;BME280;10774;42.178;26.578;2023-02-13T01:18:02;102051.56;;;-1.08;97.41
21234;BME280;10774;42.178;26.578;2023-02-13T01:20:28;102048.72;;;-1.20;98.11
21234;BME280;10774;42.178;26.578;2023-02-13T01:22:55;102045.50;;;-1.04;97.74
21234;BME280;10774;42.178;26.578;2023-02-13T01:25:20;102046.00;;;-0.73;96.46
21234;BME280;10774;42.178;26.578;2023-02-13T01:27:46;102048.06;;;-1.09;96.18
21234;BME280;10774;42.178;26.578;2023-02-13T01:30:13;102045.66;;;-0.95;96.31
21234;BME280;10774;42.178;26.578;2023-02-13T01:32:39;102042.16;;;-0.94;95.32
21234;BME280;10774;42.178;26.578;2023-02-13T01:35:06;102037.97;;;-0.81;94.49
21234;BME280;10774;42.178;26.578;2023-02-13T01:37:31;102052.97;;;-0.78;93.53
21234;BME280;10774;42.178;26.578;2023-02-13T01:39:57;102046.84;;;-0.76;93.80
21234;BME280;10774;42.178;26.578;2023-02-13T01:42:28;102051.28;;;-0.73;93.88
21234;BME280;10774;42.178;26.578;2023-02-13T01:44:58;102053.88;;;-0.76;93.20
21234;BME280;10774;42.178;26.578;2023-02-13T01:47:28;102060.66;;;-0.91;94.08
21234;BME280;10774;42.178;26.578;2023-02-13T01:50:14;102068.78;;;-0.77;93.88
21234;BME280;10774;42.178;26.578;2023-02-13T01:55:38;102070.13;;;-1.00;94.63
21234;BME280;10774;42.178;26.578;2023-02-13T01:58:10;102060.38;;;-1.06;94.57
21234;BME280;10774;42.178;26.578;2023-02-13T02:00:38;102065.13;;;-0.87;93.90
21234;BME280;10774;42.178;26.578;2023-02-13T02:03:12;102072.22;;;-0.83;93.15
21234;BME280;10774;42.178;26.578;2023-02-13T02:05:38;102063.50;;;-0.78;92.76
21234;BME280;10774;42.178;26.578;2023-02-13T02:08:06;102066.25;;;-0.72;92.77
21234;BME280;10774;42.178;26.578;2023-02-13T02:10:35;102067.28;;;-0.61;91.79
21234;BME280;10774;42.178;26.578;2023-02-13T02:13:08;102070.09;;;-1.05;92.55
21234;BME280;10774;42.178;26.578;2023-02-13T02:15:35;102072.72;;;-1.05;92.62
21234;BME280;10774;42.178;26.578;2023-02-13T02:18:01;102077.06;;;-1.07;93.61
21234;BME280;10774;42.178;26.578;2023-02-13T02:23:46;102081.81;;;-1.35;94.62
21234;BME280;10774;42.178;26.578;2023-02-13T02:45:09;102093.94;;;-1.43;95.90
21234;BME280;10774;42.178;26.578;2023-02-13T02:50:50;102091.97;;;-1.09;94.83
21234;BME280;10774;42.178;26.578;2023-02-13T02:58:37;102100.16;;;-0.94;93.03
21234;BME280;10774;42.178;26.578;2023-02-13T03:01:24;102100.34;;;-0.83;91.71
21234;BME280;10774;42.178;26.578;2023-02-13T03:04:37;102107.38;;;-0.84;92.03
21234;BME280;10774;42.178;26.578;2023-02-13T03:07:19;102100.47;;;-0.75;91.52
21234;BME280;10774;42.178;26.578;2023-02-13T03:10:12;102102.28;;;-0.71;90.75
21234;BME280;10774;42.178;26.578;2023-02-13T03:13:01;102097.88;;;-0.72;90.92
21234;BME280;10774;42.178;26.578;2023-02-13T03:15:42;102098.84;;;-0.67;90.03
21234;BME280;10774;42.178;26.578;2023-02-13T03:18:30;102104.75;;;-1.30;91.77
21234;BME280;10774;42.178;26.578;2023-02-13T03:21:18;102103.94;;;-1.70;94.60
21234;BME280;10774;42.178;26.578;2023-02-13T03:24:15;102108.13;;;-1.80;95.07
21234;BME280;10774;42.178;26.578;2023-02-13T03:26:52;102104.88;;;-1.68;95.62
21234;BME280;10774;42.178;26.578;2023-02-13T03:29:55;102108.78;;;-1.48;94.71
21234;BME280;10774;42.178;26.578;2023-02-13T03:38:28;102102.72;;;-1.44;92.72
21234;BME280;10774;42.178;26.578;2023-02-13T03:41:22;102109.59;;;-1.52;93.67
21234;BME280;10774;42.178;26.578;2023-02-13T03:46:21;102113.22;;;-1.45;93.96
21234;BME280;10774;42.178;26.578;2023-02-13T03:48:48;102109.59;;;-1.52;94.12
21234;BME280;10774;42.178;26.578;2023-02-13T03:51:37;102120.06;;;-1.55;94.10
21234;BME280;10774;42.178;26.578;2023-02-13T03:54:11;102109.75;;;-1.43;93.61
21234;BME280;10774;42.178;26.578;2023-02-13T03:56:41;102109.91;;;-1.37;93.43
21234;BME280;10774;42.178;26.578;2023-02-13T03:59:30;102106.22;;;-1.45;92.93
21234;BME280;10774;42.178;26.578;2023-02-13T04:04:48;102118.75;;;-1.75;94.25
21234;BME280;10774;42.178;26.578;2023-02-13T04:07:17;102116.50;;;-1.57;93.98
21234;BME280;10774;42.178;26.578;2023-02-13T04:10:08;102121.00;;;-1.51;93.06
21234;BME280;10774;42.178;26.578;2023-02-13T04:12:52;102114.19;;;-1.42;93.75
21234;BME280;10774;42.178;26.578;2023-02-13T04:15:29;102117.06;;;-1.72;93.63
21234;BME280;10774;42.178;26.578;2023-02-13T04:18:06;102121.66;;;-1.63;94.65
21234;BME280;10774;42.178;26.578;2023-02-13T04:20:34;102122.66;;;-1.56;93.73
21234;BME280;10774;42.178;26.578;2023-02-13T04:23:06;102125.06;;;-1.67;93.80
21234;BME280;10774;42.178;26.578;2023-02-13T04:25:33;102120.91;;;-1.58;93.36
21234;BME280;10774;42.178;26.578;2023-02-13T04:27:59;102126.09;;;-1.61;93.74
21234;BME280;10774;42.178;26.578;2023-02-13T04:30:24;102132.00;;;-1.72;93.62
21234;BME280;10774;42.178;26.578;2023-02-13T04:32:49;102131.19;;;-1.68;93.54
21234;BME280;10774;42.178;26.578;2023-02-13T04:35:17;102136.72;;;-1.56;93.17
21234;BME280;10774;42.178;26.578;2023-02-13T04:37:42;102128.84;;;-1.54;92.92
21234;BME280;10774;42.178;26.578;2023-02-13T04:40:08;102128.06;;;-1.49;92.14
21234;BME280;10774;42.178;26.578;2023-02-13T04:42:34;102134.41;;;-1.41;91.68
21234;BME280;10774;42.178;26.578;2023-02-13T04:44:59;102118.28;;;-1.56;91.62
21234;BME280;10774;42.178;26.578;2023-02-13T04:47:25;102124.44;;;-1.55;91.52
21234;BME280;10774;42.178;26.578;2023-02-13T04:49:50;102129.22;;;-1.78;92.16
21234;BME280;10774;42.178;26.578;2023-02-13T04:52:16;102133.03;;;-1.64;92.17
21234;BME280;10774;42.178;26.578;2023-02-13T04:54:42;102148.88;;;-1.63;92.17
21234;BME280;10774;42.178;26.578;2023-02-13T04:57:07;102140.91;;;-1.64;92.62
21234;BME280;10774;42.178;26.578;2023-02-13T04:59:33;102144.53;;;-1.59;92.72
21234;BME280;10774;42.178;26.578;2023-02-13T05:01:58;102154.31;;;-1.53;92.68
21234;BME280;10774;42.178;26.578;2023-02-13T05:04:24;102149.56;;;-1.71;92.62
21234;BME280;10774;42.178;26.578;2023-02-13T05:06:50;102141.81;;;-1.64;92.56
21234;BME280;10774;42.178;26.578;2023-02-13T05:09:15;102145.13;;;-1.74;92.27
21234;BME280;10774;42.178;26.578;2023-02-13T05:11:41;102145.53;;;-1.54;92.23
21234;BME280;10774;42.178;26.578;2023-02-13T05:14:07;102149.91;;;-1.54;91.61
21234;BME280;10774;42.178;26.578;2023-02-13T05:16:32;102145.34;;;-1.63;91.82
21234;BME280;10774;42.178;26.578;2023-02-13T05:18:57;102143.41;;;-1.72;91.89
21234;BME280;10774;42.178;26.578;2023-02-13T05:21:23;102139.03;;;-1.71;92.85
21234;BME280;10774;42.178;26.578;2023-02-13T05:24:07;102147.16;;;-1.61;92.41
21234;BME280;10774;42.178;26.578;2023-02-13T05:26:32;102153.94;;;-1.72;91.93
21234;BME280;10774;42.178;26.578;2023-02-13T05:28:58;102153.84;;;-2.14;95.06
21234;BME280;10774;42.178;26.578;2023-02-13T05:31:42;102143.19;;;-2.20;96.42
21234;BME280;10774;42.178;26.578;2023-02-13T05:34:07;102150.16;;;-2.22;97.60
21234;BME280;10774;42.178;26.578;2023-02-13T05:36:32;102149.81;;;-2.00;97.05
21234;BME280;10774;42.178;26.578;2023-02-13T05:38:59;102155.34;;;-1.88;96.54
21234;BME280;10774;42.178;26.578;2023-02-13T05:41:24;102154.44;;;-1.90;95.70
21234;BME280;10774;42.178;26.578;2023-02-13T05:43:50;102156.38;;;-2.19;95.80
21234;BME280;10774;42.178;26.578;2023-02-13T05:46:15;102159.38;;;-2.40;96.17
21234;BME280;10774;42.178;26.578;2023-02-13T05:48:40;102153.94;;;-2.47;95.78
21234;BME280;10774;42.178;26.578;2023-02-13T05:51:06;102164.25;;;-2.20;96.56
21234;BME280;10774;42.178;26.578;2023-02-13T05:53:32;102174.03;;;-1.75;94.97
21234;BME280;10774;42.178;26.578;2023-02-13T05:56:00;102174.50;;;-1.54;93.70
21234;BME280;10774;42.178;26.578;2023-02-13T05:58:27;102167.91;;;-1.34;92.19
21234;BME280;10774;42.178;26.578;2023-02-13T06:00:55;102158.34;;;-1.28;91.74
21234;BME280;10774;42.178;26.578;2023-02-13T06:03:21;102168.50;;;-1.03;90.46
21234;BME280;10774;42.178;26.578;2023-02-13T06:05:47;102176.03;;;-0.77;90.02
21234;BME280;10774;42.178;26.578;2023-02-13T06:08:12;102180.53;;;-1.17;89.86
21234;BME280;10774;42.178;26.578;2023-02-13T06:10:38;102185.31;;;-0.98;90.08
21234;BME280;10774;42.178;26.578;2023-02-13T06:13:03;102175.47;;;-0.60;89.59
21234;BME280;10774;42.178;26.578;2023-02-13T06:15:28;102183.34;;;-0.61;88.55
21234;BME280;10774;42.178;26.578;2023-02-13T06:17:54;102186.09;;;-0.54;88.74
21234;BME280;10774;42.178;26.578;2023-02-13T06:20:19;102185.38;;;-0.45;89.74
21234;BME280;10774;42.178;26.578;2023-02-13T06:22:49;102186.63;;;-0.23;88.66
21234;BME280;10774;42.178;26.578;2023-02-13T06:25:15;102186.06;;;-0.57;88.32
21234;BME280;10774;42.178;26.578;2023-02-13T06:27:40;102188.72;;;-0.01;87.62
21234;BME280;10774;42.178;26.578;2023-02-13T06:30:06;102196.97;;;0.19;87.18
21234;BME280;10774;42.178;26.578;2023-02-13T06:32:32;102189.53;;;0.53;85.05
21234;BME280;10774;42.178;26.578;2023-02-13T06:34:57;102186.38;;;0.18;85.12
21234;BME280;10774;42.178;26.578;2023-02-13T06:37:23;102194.44;;;0.27;86.49
21234;BME280;10774;42.178;26.578;2023-02-13T06:39:48;102190.50;;;0.61;85.01
21234;BME280;10774;42.178;26.578;2023-02-13T06:42:14;102195.94;;;0.73;83.76
21234;BME280;10774;42.178;26.578;2023-02-13T06:44:39;102188.91;;;0.74;84.02
21234;BME280;10774;42.178;26.578;2023-02-13T06:47:05;102201.88;;;1.28;82.67
21234;BME280;10774;42.178;26.578;2023-02-13T06:49:30;102204.97;;;0.91;82.91
21234;BME280;10774;42.178;26.578;2023-02-13T06:51:55;102204.69;;;1.45;82.89
21234;BME280;10774;42.178;26.578;2023-02-13T06:54:21;102202.31;;;1.74;80.77
21234;BME280;10774;42.178;26.578;2023-02-13T06:56:46;102200.50;;;1.70;78.61
21234;BME280;10774;42.178;26.578;2023-02-13T06:59:12;102196.94;;;1.68;78.70
21234;BME280;10774;42.178;26.578;2023-02-13T07:01:37;102197.81;;;1.64;78.28
21234;BME280;10774;42.178;26.578;2023-02-13T07:04:03;102201.34;;;1.65;77.32
21234;BME280;10774;42.178;26.578;2023-02-13T07:06:28;102203.94;;;1.60;76.97
21234;BME280;10774;42.178;26.578;2023-02-13T07:08:53;102207.59;;;1.74;76.76
21234;BME280;10774;42.178;26.578;2023-02-13T07:11:23;102207.78;;;1.96;75.99
21234;BME280;10774;42.178;26.578;2023-02-13T07:13:49;102206.06;;;2.04;75.12
21234;BME280;10774;42.178;26.578;2023-02-13T07:16:15;102213.22;;;2.20;75.05
21234;BME280;10774;42.178;26.578;2023-02-13T07:18:40;102200.91;;;2.22;73.23
21234;BME280;10774;42.178;26.578;2023-02-13T07:21:06;102204.41;;;2.21;73.93
21234;BME280;10774;42.178;26.578;2023-02-13T07:23:32;102202.44;;;1.93;75.90
21234;BME280;10774;42.178;26.578;2023-02-13T07:25:58;102222.41;;;1.54;77.82
21234;BME280;10774;42.178;26.578;2023-02-13T07:28:25;102209.13;;;1.48;79.31
21234;BME280;10774;42.178;26.578;2023-02-13T07:30:50;102207.53;;;1.65;79.65
21234;BME280;10774;42.178;26.578;2023-02-13T07:33:16;102204.16;;;1.88;78.14
21234;BME280;10774;42.178;26.578;2023-02-13T07:35:51;102199.03;;;2.09;75.85
21234;BME280;10774;42.178;26.578;2023-02-13T07:38:18;102211.53;;;2.28;75.73
21234;BME280;10774;42.178;26.578;2023-02-13T07:40:44;102206.34;;;2.50;74.82
21234;BME280;10774;42.178;26.578;2023-02-13T07:43:10;102213.50;;;2.66;73.51
21234;BME280;10774;42.178;26.578;2023-02-13T07:45:36;102207.34;;;2.72;72.95
21234;BME280;10774;42.178;26.578;2023-02-13T07:48:01;102203.88;;;2.86;71.83
21234;BME280;10774;42.178;26.578;2023-02-13T07:50:27;102203.91;;;2.94;71.97
21234;BME280;10774;42.178;26.578;2023-02-13T07:55:19;102197.78;;;3.18;69.05
21234;BME280;10774;42.178;26.578;2023-02-13T07:57:45;102201.34;;;3.26;67.57
21234;BME280;10774;42.178;26.578;2023-02-13T08:00:10;102192.50;;;3.27;66.48
21234;BME280;10774;42.178;26.578;2023-02-13T08:02:36;102198.75;;;3.49;64.52
21234;BME280;10774;42.178;26.578;2023-02-13T08:05:01;102181.91;;;3.33;64.01
21234;BME280;10774;42.178;26.578;2023-02-13T08:07:27;102178.38;;;3.50;62.10
21234;BME280;10774;42.178;26.578;2023-02-13T08:09:52;102182.81;;;3.61;61.81
21234;BME280;10774;42.178;26.578;2023-02-13T08:12:36;102179.28;;;3.78;61.54
21234;BME280;10774;42.178;26.578;2023-02-13T08:15:02;102184.56;;;4.01;60.65
21234;BME280;10774;42.178;26.578;2023-02-13T08:17:28;102185.47;;;3.86;58.75
21234;BME280;10774;42.178;26.578;2023-02-13T08:19:53;102181.03;;;3.89;59.60
21234;BME280;10774;42.178;26.578;2023-02-13T08:22:19;102183.69;;;4.17;58.07
21234;BME280;10774;42.178;26.578;2023-02-13T08:24:45;102180.06;;;4.36;57.76
21234;BME280;10774;42.178;26.578;2023-02-13T08:27:12;102185.34;;;4.52;57.40
21234;BME280;10774;42.178;26.578;2023-02-13T08:29:38;102176.44;;;4.68;56.50
21234;BME280;10774;42.178;26.578;2023-02-13T08:32:03;102167.75;;;3.50;58.47
21234;BME280;10774;42.178;26.578;2023-02-13T08:34:29;102168.66;;;3.72;58.22
21234;BME280;10774;42.178;26.578;2023-02-13T08:36:54;102166.84;;;4.00;58.67
21234;BME280;10774;42.178;26.578;2023-02-13T08:39:19;102169.47;;;4.27;56.94
21234;BME280;10774;42.178;26.578;2023-02-13T08:41:45;102165.97;;;3.88;56.18
21234;BME280;10774;42.178;26.578;2023-02-13T08:44:10;102164.19;;;3.48;57.00
21234;BME280;10774;42.178;26.578;2023-02-13T08:46:36;102159.78;;;3.63;56.25
21234;BME280;10774;42.178;26.578;2023-02-13T08:49:01;102156.25;;;3.38;55.65
21234;BME280;10774;42.178;26.578;2023-02-13T08:51:26;102162.44;;;3.45;53.44
21234;BME280;10774;42.178;26.578;2023-02-13T08:53:52;102162.44;;;3.85;53.40
21234;BME280;10774;42.178;26.578;2023-02-13T08:56:17;102165.00;;;4.37;51.23
21234;BME280;10774;42.178;26.578;2023-02-13T08:58:43;102150.75;;;4.58;50.14
21234;BME280;10774;42.178;26.578;2023-02-13T09:01:08;102153.31;;;4.85;49.57
21234;BME280;10774;42.178;26.578;2023-02-13T09:03:34;102154.91;;;5.14;48.15
21234;BME280;10774;42.178;26.578;2023-02-13T09:06:01;102153.06;;;5.28;47.39
21234;BME280;10774;42.178;26.578;2023-02-13T09:08:27;102144.91;;;5.49;44.83
21234;BME280;10774;42.178;26.578;2023-02-13T09:10:58;102147.75;;;5.25;45.32
21234;BME280;10774;42.178;26.578;2023-02-13T09:13:26;102157.72;;;4.85;46.66
21234;BME280;10774;42.178;26.578;2023-02-13T09:15:51;102144.13;;;5.32;47.20
21234;BME280;10774;42.178;26.578;2023-02-13T09:18:17;102147.16;;;4.71;47.45
21234;BME280;10774;42.178;26.578;2023-02-13T09:20:42;102151.44;;;4.99;48.08
21234;BME280;10774;42.178;26.578;2023-02-13T09:23:07;102146.63;;;5.54;47.06
21234;BME280;10774;42.178;26.578;2023-02-13T09:25:33;102145.53;;;5.81;46.52
21234;BME280;10774;42.178;26.578;2023-02-13T09:27:58;102132.16;;;5.91;46.45
21234;BME280;10774;42.178;26.578;2023-02-13T09:30:24;102139.13;;;6.03;46.22
21234;BME280;10774;42.178;26.578;2023-02-13T09:32:51;102131.09;;;6.08;46.31
21234;BME280;10774;42.178;26.578;2023-02-13T09:35:17;102126.44;;;6.25;45.91
21234;BME280;10774;42.178;26.578;2023-02-13T09:37:43;102123.78;;;6.25;45.93
21234;BME280;10774;42.178;26.578;2023-02-13T09:40:42;102118.47;;;6.22;45.11
21234;BME280;10774;42.178;26.578;2023-02-13T09:43:17;102110.34;;;6.34;45.44
21234;BME280;10774;42.178;26.578;2023-02-13T09:45:47;102108.03;;;6.00;45.54
21234;BME280;10774;42.178;26.578;2023-02-13T09:48:27;102099.66;;;6.33;45.49
21234;BME280;10774;42.178;26.578;2023-02-13T09:50:54;102093.31;;;6.44;45.42
21234;BME280;10774;42.178;26.578;2023-02-13T09:53:22;102086.34;;;6.34;44.97
21234;BME280;10774;42.178;26.578;2023-02-13T09:58:44;102086.09;;;6.52;45.23
21234;BME280;10774;42.178;26.578;2023-02-13T10:01:38;102082.25;;;6.75;44.83
21234;BME280;10774;42.178;26.578;2023-02-13T10:09:59;102072.47;;;7.31;43.59
21234;BME280;10774;42.178;26.578;2023-02-13T10:12:43;102067.72;;;7.48;43.06
21234;BME280;10774;42.178;26.578;2023-02-13T10:15:20;102053.34;;;7.57;43.09
21234;BME280;10774;42.178;26.578;2023-02-13T10:18:13;102052.09;;;7.75;43.17
21234;BME280;10774;42.178;26.578;2023-02-13T10:20:55;102051.22;;;7.76;43.36
21234;BME280;10774;42.178;26.578;2023-02-13T10:23:29;102050.69;;;7.55;43.74
21234;BME280;10774;42.178;26.578;2023-02-13T10:26:11;102044.94;;;7.29;43.92
21234;BME280;10774;42.178;26.578;2023-02-13T10:28:43;102038.44;;;7.42;43.81
21234;BME280;10774;42.178;26.578;2023-02-13T10:31:18;102028.63;;;7.43;44.01
21234;BME280;10774;42.178;26.578;2023-02-13T10:33:50;102023.41;;;7.37;43.76
21234;BME280;10774;42.178;26.578;2023-02-13T10:38:54;102017.38;;;7.25;44.26
21234;BME280;10774;42.178;26.578;2023-02-13T10:52:23;101982.56;;;7.78;43.82
21234;BME280;10774;42.178;26.578;2023-02-13T10:57:56;101972.94;;;8.12;43.00
21234;BME280;10774;42.178;26.578;2023-02-13T11:03:20;101968.41;;;8.56;43.38
21234;BME280;10774;42.178;26.578;2023-02-13T11:05:46;101967.28;;;8.67;42.17
21234;BME280;10774;42.178;26.578;2023-02-13T11:08:48;101966.03;;;8.81;42.28
21234;BME280;10774;42.178;26.578;2023-02-13T11:11:39;101961.31;;;8.55;42.41
21234;BME280;10774;42.178;26.578;2023-02-13T11:16:42;101944.94;;;8.27;43.92
21234;BME280;10774;42.178;26.578;2023-02-13T11:19:20;101940.91;;;7.66;44.94
21234;BME280;10774;42.178;26.578;2023-02-13T11:21:47;101945.66;;;7.95;44.14
21234;BME280;10774;42.178;26.578;2023-02-13T11:24:22;101937.44;;;8.04;43.99
21234;BME280;10774;42.178;26.578;2023-02-13T11:26:51;101940.94;;;8.06;44.10
21234;BME280;10774;42.178;26.578;2023-02-13T11:32:21;101926.09;;;8.72;42.88
21234;BME280;10774;42.178;26.578;2023-02-13T11:34:45;101936.25;;;9.28;42.17
21234;BME280;10774;42.178;26.578;2023-02-13T11:39:36;101915.66;;;8.97;42.37
21234;BME280;10774;42.178;26.578;2023-02-13T11:42:01;101923.41;;;9.06;42.92
21234;BME280;10774;42.178;26.578;2023-02-13T11:44:29;101910.19;;;8.26;43.39
21234;BME280;10774;42.178;26.578;2023-02-13T11:46:59;101905.97;;;8.16;45.06
21234;BME280;10774;42.178;26.578;2023-02-13T11:49:29;101906.44;;;9.07;43.73
21234;BME280;10774;42.178;26.578;2023-02-13T11:51:58;101893.41;;;9.59;42.23
21234;BME280;10774;42.178;26.578;2023-02-13T11:54:37;101900.63;;;9.57;42.25
21234;BME280;10774;42.178;26.578;2023-02-13T11:57:21;101896.88;;;9.62;42.09
21234;BME280;10774;42.178;26.578;2023-02-13T11:59:50;101882.56;;;9.93;42.08
21234;BME280;10774;42.178;26.578;2023-02-13T12:04:53;101877.03;;;9.37;42.39
21234;BME280;10774;42.178;26.578;2023-02-13T12:12:28;101877.16;;;9.34;41.68
21234;BME280;10774;42.178;26.578;2023-02-13T12:14:54;101864.22;;;9.48;42.60
21234;BME280;10774;42.178;26.578;2023-02-13T12:17:26;101860.03;;;9.99;41.79
21234;BME280;10774;42.178;26.578;2023-02-13T12:19:53;101864.44;;;10.57;41.16
21234;BME280;10774;42.178;26.578;2023-02-13T12:22:28;101865.78;;;10.97;40.47
21234;BME280;10774;42.178;26.578;2023-02-13T12:31:09;101845.75;;;11.31;39.48
21234;BME280;10774;42.178;26.578;2023-02-13T12:33:48;101847.88;;;11.69;39.04
21234;BME280;10774;42.178;26.578;2023-02-13T12:36:35;101847.53;;;11.55;39.74
21234;BME280;10774;42.178;26.578;2023-02-13T12:39:26;101839.69;;;11.96;38.97
21234;BME280;10774;42.178;26.578;2023-02-13T13:04:13;101811.44;;;12.29;38.24
21234;BME280;10774;42.178;26.578;2023-02-13T13:06:40;101805.97;;;12.73;37.70
21234;BME280;10774;42.178;26.578;2023-02-13T13:14:52;101802.00;;;10.22;40.86
21234;BME280;10774;42.178;26.578;2023-02-13T13:23:01;101795.06;;;12.76;37.79
21234;BME280;10774;42.178;26.578;2023-02-13T13:28:14;101793.09;;;12.60;38.44
21234;BME280;10774;42.178;26.578;2023-02-13T13:30:42;101791.22;;;13.23;37.66
21234;BME280;10774;42.178;26.578;2023-02-13T13:33:20;101787.09;;;13.53;36.94
21234;BME280;10774;42.178;26.578;2023-02-13T13:41:10;101782.09;;;12.44;38.12
21234;BME280;10774;42.178;26.578;2023-02-13T13:46:31;101782.38;;;11.70;39.61
21234;BME280;10774;42.178;26.578;2023-02-13T13:49:28;101783.88;;;11.07;39.81
21234;BME280;10774;42.178;26.578;2023-02-13T13:52:09;101774.97;;;12.43;39.39
21234;BME280;10774;42.178;26.578;2023-02-13T13:54:35;101773.53;;;12.76;38.17
21234;BME280;10774;42.178;26.578;2023-02-13T14:07:39;101762.31;;;13.64;36.37
21234;BME280;10774;42.178;26.578;2023-02-13T14:20:37;101756.16;;;11.99;38.90
21234;BME280;10774;42.178;26.578;2023-02-13T14:23:16;101752.91;;;12.13;38.90
21234;BME280;10774;42.178;26.578;2023-02-13T14:25:43;101749.31;;;12.75;37.95
21234;BME280;10774;42.178;26.578;2023-02-13T14:28:20;101745.03;;;13.10;36.97
21234;BME280;10774;42.178;26.578;2023-02-13T14:30:48;101752.34;;;13.08;37.27
21234;BME280;10774;42.178;26.578;2023-02-13T14:33:40;101742.50;;;12.25;38.29
21234;BME280;10774;42.178;26.578;2023-02-13T14:36:17;101747.63;;;12.52;38.32
21234;BME280;10774;42.178;26.578;2023-02-13T14:39:00;101744.28;;;11.36;39.26
21234;BME280;10774;42.178;26.578;2023-02-13T14:44:19;101746.72;;;11.65;39.28
21234;BME280;10774;42.178;26.578;2023-02-13T14:46:47;101738.44;;;11.24;39.76
21234;BME280;10774;42.178;26.578;2023-02-13T14:49:18;101753.06;;;10.42;41.41
21234;BME280;10774;42.178;26.578;2023-02-13T14:51:50;101747.75;;;10.41;41.20
21234;BME280;10774;42.178;26.578;2023-02-13T14:57:07;101744.03;;;11.65;40.55
21234;BME280;10774;42.178;26.578;2023-02-13T14:59:35;101733.69;;;12.00;39.02
21234;BME280;10774;42.178;26.578;2023-02-13T15:02:22;101735.69;;;11.95;39.15
21234;BME280;10774;42.178;26.578;2023-02-13T15:05:01;101738.41;;;11.71;38.99
21234;BME280;10774;42.178;26.578;2023-02-13T15:07:34;101728.88;;;11.63;39.68
21234;BME280;10774;42.178;26.578;2023-02-13T15:10:11;101732.44;;;11.63;38.81
21234;BME280;10774;42.178;26.578;2023-02-13T15:12:44;101723.25;;;11.00;40.46
21234;BME280;10774;42.178;26.578;2023-02-13T15:15:25;101726.28;;;11.14;40.71
21234;BME280;10774;42.178;26.578;2023-02-13T15:17:56;101723.47;;;11.17;40.77
21234;BME280;10774;42.178;26.578;2023-02-13T15:20:26;101715.41;;;10.70;41.51
21234;BME280;10774;42.178;26.578;2023-02-13T15:22:53;101713.75;;;10.66;42.25
21234;BME280;10774;42.178;26.578;2023-02-13T15:25:24;101713.44;;;10.22;42.62
21234;BME280;10774;42.178;26.578;2023-02-13T15:27:54;101720.25;;;10.06;43.20
21234;BME280;10774;42.178;26.578;2023-02-13T15:30:23;101718.41;;;9.82;43.48
21234;BME280;10774;42.178;26.578;2023-02-13T15:33:01;101723.00;;;9.50;44.26
21234;BME280;10774;42.178;26.578;2023-02-13T15:35:30;101721.31;;;8.87;45.34
21234;BME280;10774;42.178;26.578;2023-02-13T15:37:57;101716.56;;;8.97;45.63
21234;BME280;10774;42.178;26.578;2023-02-13T15:40:32;101709.16;;;8.74;45.79
21234;BME280;10774;42.178;26.578;2023-02-13T15:43:00;101723.75;;;8.95;45.66
21234;BME280;10774;42.178;26.578;2023-02-13T15:45:27;101718.19;;;8.70;45.98
21234;BME280;10774;42.178;26.578;2023-02-13T15:47:54;101717.56;;;8.26;46.93
21234;BME280;10774;42.178;26.578;2023-02-13T15:50:32;101722.03;;;7.52;48.09
21234;BME280;10774;42.178;26.578;2023-02-13T15:52:59;101724.16;;;7.77;48.29